createdAt,value
2019-05-16T00:02:09.630Z,18.06
2019-05-16T00:04:41.227Z,18.02
2019-05-16T00:07:12.162Z,17.96
2019-05-16T00:09:43.137Z,17.97
2019-05-16T00:12:14.889Z,17.96
2019-05-16T00:14:48.810Z,17.84
2019-05-16T00:17:19.658Z,17.87
2019-05-16T00:19:50.266Z,17.78
2019-05-16T00:22:21.413Z,17.77
2019-05-16T00:24:53.171Z,17.69
2019-05-16T00:27:24.724Z,17.59
2019-05-16T00:29:58.139Z,17.62
2019-05-16T00:32:29.778Z,17.49
2019-05-16T00:35:01.220Z,17.45
2019-05-16T00:37:32.976Z,17.40
2019-05-16T00:40:04.279Z,17.37
2019-05-16T00:42:35.470Z,17.30
2019-05-16T00:45:09.230Z,17.28
2019-05-16T00:47:40.830Z,17.23
2019-05-16T00:50:12.684Z,17.21
2019-05-16T00:52:44.541Z,17.23
2019-05-16T00:55:17.789Z,17.00
2019-05-16T00:57:50.087Z,16.88
2019-05-16T01:00:42.755Z,16.94
2019-05-16T01:03:15.084Z,16.96
2019-05-16T01:05:48.076Z,16.88
2019-05-16T01:08:20.689Z,16.88
2019-05-16T01:10:52.038Z,16.89
2019-05-16T01:13:23.897Z,16.87
2019-05-16T01:15:54.559Z,16.80
2019-05-16T01:18:25.673Z,16.83
2019-05-16T01:20:58.547Z,16.84
2019-05-16T01:23:30.205Z,16.77
2019-05-16T01:26:01.758Z,16.70
2019-05-16T01:28:33.418Z,16.67
2019-05-16T01:31:05.183Z,16.56
2019-05-16T01:33:38.703Z,16.50
2019-05-16T01:36:10.436Z,16.32
2019-05-16T01:38:41.877Z,16.10
2019-05-16T01:41:13.530Z,16.30
2019-05-16T01:43:45.501Z,16.29
2019-05-16T01:46:18.100Z,16.21
2019-05-16T01:48:49.825Z,16.17
2019-05-16T01:51:21.276Z,16.14
2019-05-16T01:53:53.590Z,16.16
2019-05-16T01:56:24.999Z,16.09
2019-05-16T01:58:58.117Z,16.02
2019-05-16T02:01:28.970Z,15.98
2019-05-16T02:04:00.374Z,15.98
2019-05-16T02:06:32.339Z,16.05
2019-05-16T02:09:05.015Z,16.12
2019-05-16T02:11:38.713Z,16.01
2019-05-16T02:14:09.670Z,16.05
2019-05-16T02:16:41.136Z,16.29
2019-05-16T02:19:11.741Z,16.42
2019-05-16T02:21:42.927Z,16.38
2019-05-16T02:24:13.533Z,16.17
2019-05-16T02:26:44.712Z,16.13
2019-05-16T02:29:15.393Z,16.24
2019-05-16T02:31:46.426Z,16.29
2019-05-16T02:34:17.034Z,16.30
2019-05-16T02:37:08.311Z,16.24
2019-05-16T02:39:21.330Z,16.07
2019-05-16T02:41:52.133Z,16.06
2019-05-16T02:44:24.782Z,16.17
2019-05-16T02:46:56.461Z,16.27
2019-05-16T02:49:30.688Z,16.38
2019-05-16T02:52:02.027Z,16.26
2019-05-16T02:54:33.580Z,16.20
2019-05-16T02:57:05.126Z,16.10
2019-05-16T02:59:37.820Z,16.20
2019-05-16T03:02:11.390Z,16.16
2019-05-16T03:04:44.444Z,16.39
2019-05-16T03:07:32.835Z,16.91
2019-05-16T03:09:51.603Z,16.84
2019-05-16T03:12:25.521Z,17.15
2019-05-16T03:15:01.877Z,17.33
2019-05-16T03:17:35.133Z,17.37
2019-05-16T03:20:10.719Z,17.38
2019-05-16T03:22:41.756Z,17.32
2019-05-16T03:25:13.243Z,17.68
2019-05-16T03:27:44.630Z,17.42
2019-05-16T03:30:17.017Z,17.38
2019-05-16T03:32:54.176Z,17.70
2019-05-16T03:35:24.833Z,17.52
2019-05-16T03:37:59.638Z,17.59
2019-05-16T03:40:31.394Z,17.55
2019-05-16T03:43:03.187Z,17.66
2019-05-16T03:45:35.035Z,17.69
2019-05-16T03:48:06.826Z,18.07
2019-05-16T03:50:41.261Z,18.03
2019-05-16T03:53:11.903Z,17.89
2019-05-16T03:55:43.576Z,18.27
2019-05-16T03:58:14.678Z,18.29
2019-05-16T04:00:55.007Z,18.31
2019-05-16T04:03:28.814Z,18.57
2019-05-16T04:06:02.205Z,18.87
2019-05-16T04:08:33.662Z,18.46
2019-05-16T04:11:05.168Z,18.92
2019-05-16T04:13:36.743Z,18.95
2019-05-16T04:16:07.376Z,19.00
2019-05-16T04:18:41.657Z,18.93
2019-05-16T04:21:12.185Z,18.93
2019-05-16T04:23:43.675Z,19.13
2019-05-16T04:26:15.192Z,19.28
2019-05-16T04:28:46.589Z,19.34
2019-05-16T04:31:17.211Z,19.28
2019-05-16T04:33:51.413Z,19.50
2019-05-16T04:36:21.616Z,19.72
2019-05-16T04:38:53.048Z,19.54
2019-05-16T04:41:24.584Z,19.76
2019-05-16T04:44:00.406Z,19.82
2019-05-16T04:46:31.402Z,20.25
2019-05-16T04:49:03.111Z,20.28
2019-05-16T04:51:34.654Z,20.21
2019-05-16T04:54:08.227Z,20.40
2019-05-16T04:56:41.391Z,20.78
2019-05-16T04:59:16.557Z,20.88
2019-05-16T05:01:46.523Z,20.78
2019-05-16T05:04:20.933Z,21.03
2019-05-16T05:06:53.714Z,21.16
2019-05-16T05:09:24.844Z,21.15
2019-05-16T05:11:56.452Z,21.33
2019-05-16T05:14:30.573Z,21.21
2019-05-16T05:17:04.871Z,21.38
2019-05-16T05:19:34.265Z,21.34
2019-05-16T05:22:06.085Z,21.22
2019-05-16T05:24:37.533Z,21.63
2019-05-16T05:27:10.455Z,21.58
2019-05-16T05:29:42.016Z,21.89
2019-05-16T05:32:14.455Z,22.13
2019-05-16T05:34:45.352Z,22.20
2019-05-16T05:37:15.975Z,22.06
2019-05-16T05:39:47.056Z,21.98
2019-05-16T05:42:19.898Z,22.02
2019-05-16T05:44:52.309Z,22.23
2019-05-16T05:47:23.728Z,22.18
2019-05-16T05:49:55.062Z,22.46
2019-05-16T05:52:26.819Z,22.28
2019-05-16T05:55:00.704Z,22.28
2019-05-16T05:57:31.665Z,22.43
2019-05-16T06:00:03.238Z,22.51
2019-05-16T06:02:34.832Z,22.65
2019-05-16T06:05:10.356Z,23.24
2019-05-16T06:07:41.025Z,23.04
2019-05-16T06:10:12.656Z,23.42
2019-05-16T06:12:44.300Z,23.24
2019-05-16T06:15:17.273Z,23.28
2019-05-16T06:17:50.856Z,24.05
2019-05-16T06:20:21.942Z,23.14
2019-05-16T06:22:53.371Z,23.24
2019-05-16T06:25:24.812Z,23.20
2019-05-16T06:27:56.428Z,23.28
2019-05-16T06:30:30.328Z,23.19
2019-05-16T06:33:00.975Z,23.47
2019-05-16T06:35:32.511Z,23.59
2019-05-16T06:38:04.289Z,23.61
2019-05-16T06:40:36.168Z,23.57
2019-05-16T06:43:07.509Z,23.77
2019-05-16T06:45:40.248Z,23.77
2019-05-16T06:48:11.015Z,23.71
2019-05-16T06:50:42.687Z,24.16
2019-05-16T06:53:14.614Z,24.09
2019-05-16T06:55:46.052Z,23.66
2019-05-16T06:58:17.460Z,23.98
2019-05-16T07:00:52.361Z,24.11
2019-05-16T07:03:22.587Z,23.82
2019-05-16T07:05:53.921Z,24.14
2019-05-16T07:08:25.350Z,23.75
2019-05-16T07:10:56.808Z,24.20
2019-05-16T07:13:30.367Z,24.68
2019-05-16T07:16:01.450Z,24.14
2019-05-16T07:18:32.996Z,24.41
2019-05-16T07:21:04.498Z,24.54
2019-05-16T07:23:35.850Z,24.38
2019-05-16T07:26:09.698Z,24.72
2019-05-16T07:28:40.756Z,24.28
2019-05-16T07:31:18.308Z,24.71
2019-05-16T07:33:45.387Z,24.48
2019-05-16T07:36:16.816Z,24.72
2019-05-16T07:38:50.539Z,24.70
2019-05-16T07:41:21.565Z,24.76
2019-05-16T07:43:53.210Z,24.64
2019-05-16T07:46:24.633Z,24.82
2019-05-16T07:48:56.034Z,25.06
2019-05-16T07:51:27.500Z,25.14
2019-05-16T07:54:00.803Z,25.13
2019-05-16T07:56:32.211Z,25.09
2019-05-16T07:59:03.618Z,25.21
2019-05-16T08:01:35.563Z,25.24
2019-05-16T08:04:07.239Z,25.10
2019-05-16T08:06:40.783Z,25.28
2019-05-16T08:09:12.362Z,25.00
2019-05-16T08:11:44.427Z,25.10
2019-05-16T08:14:15.741Z,25.00
2019-05-16T08:16:49.995Z,25.06
2019-05-16T08:19:24.527Z,24.87
2019-05-16T08:21:53.392Z,25.35
2019-05-16T08:24:24.805Z,25.30
2019-05-16T08:26:56.195Z,25.43
2019-05-16T08:29:27.528Z,25.01
2019-05-16T08:32:01.838Z,25.42
2019-05-16T08:34:32.194Z,25.23
2019-05-16T08:37:03.935Z,25.48
2019-05-16T08:39:35.354Z,25.59
2019-05-16T08:42:08.480Z,25.46
2019-05-16T08:44:41.828Z,25.51
2019-05-16T08:47:13.917Z,25.05
2019-05-16T08:49:45.505Z,25.14
2019-05-16T08:52:17.024Z,25.56
2019-05-16T08:54:51.041Z,25.75
2019-05-16T08:57:27.730Z,25.42
2019-05-16T08:59:55.338Z,25.14
2019-05-16T09:05:04.991Z,25.32
2019-05-16T09:07:34.709Z,25.15
2019-05-16T09:10:40.734Z,25.22
2019-05-16T09:12:40.579Z,25.54
2019-05-16T09:15:12.549Z,25.82
2019-05-16T09:17:47.237Z,25.71
2019-05-16T09:18:30.896Z,25.42
2019-05-16T09:20:19.235Z,25.74
2019-05-16T09:22:50.774Z,25.30
2019-05-16T09:25:22.560Z,25.48
2019-05-16T09:27:56.889Z,25.66
2019-05-16T09:30:28.288Z,25.34
2019-05-16T09:33:00.133Z,25.59
2019-05-16T09:35:31.731Z,25.86
2019-05-16T09:38:03.106Z,25.79
2019-05-16T09:40:34.669Z,25.90
2019-05-16T09:43:07.599Z,25.63
2019-05-16T09:45:39.262Z,25.52
2019-05-16T09:48:10.767Z,25.57
2019-05-16T09:50:42.582Z,25.66
2019-05-16T09:53:17.148Z,25.70
2019-05-16T09:55:49.462Z,25.83
2019-05-16T09:58:21.320Z,25.75
2019-05-16T10:00:53.284Z,25.69
2019-05-16T10:03:27.095Z,25.74
2019-05-16T10:05:58.159Z,26.06
2019-05-16T10:08:29.780Z,26.18
2019-05-16T10:11:01.641Z,26.11
2019-05-16T10:13:33.020Z,26.20
2019-05-16T10:16:07.077Z,25.90
2019-05-16T10:18:37.901Z,26.00
2019-05-16T10:21:09.421Z,26.15
2019-05-16T10:23:41.009Z,25.99
2019-05-16T10:26:12.505Z,25.96
2019-05-16T10:28:46.387Z,26.07
2019-05-16T10:31:17.970Z,25.93
2019-05-16T10:33:51.150Z,26.06
2019-05-16T10:36:22.697Z,26.41
2019-05-16T10:38:54.195Z,26.20
2019-05-16T10:41:25.658Z,26.34
2019-05-16T10:43:57.076Z,26.43
2019-05-16T10:46:28.532Z,26.48
2019-05-16T10:48:59.922Z,26.35
2019-05-16T10:51:31.403Z,26.49
2019-05-16T10:54:13.033Z,26.54
2019-05-16T10:56:40.118Z,26.68
2019-05-16T10:59:46.865Z,26.21
2019-05-16T11:01:42.939Z,26.37
2019-05-16T11:04:26.270Z,26.70
2019-05-16T11:06:57.245Z,26.51
2019-05-16T11:09:28.857Z,26.43
2019-05-16T11:12:00.516Z,26.29
2019-05-16T11:14:32.472Z,26.51
2019-05-16T11:17:04.125Z,26.63
2019-05-16T11:19:37.427Z,26.60
2019-05-16T11:22:09.382Z,26.69
2019-05-16T11:24:41.172Z,26.82
2019-05-16T11:27:12.906Z,26.65
2019-05-16T11:29:47.148Z,26.76
2019-05-16T11:32:18.366Z,26.72
2019-05-16T11:34:50.011Z,26.65
2019-05-16T11:37:22.086Z,26.68
2019-05-16T11:39:53.835Z,26.57
2019-05-16T11:42:27.992Z,26.68
2019-05-16T11:44:59.417Z,26.68
2019-05-16T11:47:31.153Z,26.55
2019-05-16T11:50:02.810Z,26.67
2019-05-16T11:52:34.982Z,26.43
2019-05-16T11:55:08.193Z,26.66
2019-05-16T11:57:40.029Z,26.75
2019-05-16T12:00:13.725Z,26.47
2019-05-16T12:02:47.876Z,26.71
2019-05-16T12:05:18.685Z,26.70
2019-05-16T12:07:50.044Z,26.85
2019-05-16T12:10:26.929Z,26.55
2019-05-16T12:12:58.352Z,26.46
2019-05-16T12:15:32.462Z,26.64
2019-05-16T12:18:05.874Z,26.64
2019-05-16T12:20:41.413Z,26.94
2019-05-16T12:23:13.166Z,26.68
2019-05-16T12:25:44.714Z,26.64
2019-05-16T12:28:17.006Z,26.95
2019-05-16T12:30:48.743Z,26.98
2019-05-16T12:33:27.501Z,26.59
2019-05-16T12:35:58.310Z,26.66
2019-05-16T12:38:29.952Z,26.77
2019-05-16T12:41:02.319Z,26.85
2019-05-16T12:43:46.078Z,26.92
2019-05-16T12:46:09.945Z,26.97
2019-05-16T12:48:42.552Z,26.96
2019-05-16T12:51:14.370Z,27.06
2019-05-16T12:53:49.465Z,27.05
2019-05-16T12:56:27.229Z,26.92
2019-05-16T12:58:58.348Z,26.97
2019-05-16T13:01:34.018Z,26.85
2019-05-16T13:04:12.403Z,27.01
2019-05-16T13:06:41.927Z,27.00
2019-05-16T13:09:13.265Z,26.96
2019-05-16T13:11:47.211Z,27.00
2019-05-16T13:14:18.158Z,27.37
2019-05-16T13:16:50.288Z,27.29
2019-05-16T13:19:21.730Z,27.24
2019-05-16T13:21:58.207Z,27.25
2019-05-16T13:24:29.853Z,27.24
2019-05-16T13:27:01.822Z,27.20
2019-05-16T13:29:33.515Z,27.24
2019-05-16T13:32:07.730Z,27.37
2019-05-16T13:34:39.337Z,27.26
2019-05-16T13:37:10.687Z,27.28
2019-05-16T13:39:42.447Z,27.14
2019-05-16T13:42:16.479Z,27.34
2019-05-16T13:44:47.395Z,27.28
2019-05-16T13:47:19.045Z,27.28
2019-05-16T13:49:50.711Z,27.33
2019-05-16T13:52:22.813Z,27.32
2019-05-16T13:54:56.387Z,27.42
2019-05-16T13:57:29.042Z,27.34
2019-05-16T14:00:00.911Z,27.32
2019-05-16T14:02:32.976Z,27.24
2019-05-16T14:05:07.525Z,27.30
2019-05-16T14:07:39.250Z,27.38
2019-05-16T14:10:11.318Z,27.35
2019-05-16T14:12:42.668Z,27.27
2019-05-16T14:15:17.881Z,27.36
2019-05-16T14:17:49.968Z,27.15
2019-05-16T14:20:22.135Z,27.06
2019-05-16T14:22:53.787Z,27.15
2019-05-16T14:25:25.339Z,27.14
2019-05-16T14:27:57.223Z,27.04
2019-05-16T14:30:29.074Z,27.03
2019-05-16T14:33:02.632Z,27.09
2019-05-16T14:35:37.670Z,27.00
2019-05-16T14:38:09.162Z,27.07
2019-05-16T14:40:40.903Z,27.18
2019-05-16T14:43:12.352Z,27.00
2019-05-16T14:45:43.823Z,26.96
2019-05-16T14:48:18.199Z,27.14
2019-05-16T14:50:49.158Z,27.21
2019-05-16T14:53:21.125Z,27.03
2019-05-16T14:55:52.573Z,27.08
2019-05-16T14:58:24.235Z,27.08
2019-05-16T15:00:57.497Z,27.06
2019-05-16T15:03:29.477Z,27.04
2019-05-16T15:06:01.452Z,27.08
2019-05-16T15:08:32.829Z,27.00
2019-05-16T15:11:04.350Z,27.06
2019-05-16T15:13:35.957Z,27.11
2019-05-16T15:16:07.827Z,26.99
2019-05-16T15:18:39.327Z,26.95
2019-05-16T15:21:10.734Z,26.89
2019-05-16T15:23:42.157Z,26.87
2019-05-16T15:26:13.601Z,26.85
2019-05-16T15:28:50.741Z,26.81
2019-05-16T15:31:18.399Z,26.78
2019-05-16T15:33:50.184Z,26.70
2019-05-16T15:36:21.923Z,26.75
2019-05-16T15:38:53.683Z,26.74
2019-05-16T15:41:27.261Z,26.74
2019-05-16T15:43:59.653Z,26.65
2019-05-16T15:46:31.709Z,26.63
2019-05-16T15:49:03.324Z,26.59
2019-05-16T15:51:36.923Z,26.54
2019-05-16T15:54:08.915Z,26.49
2019-05-16T15:56:43.757Z,26.45
2019-05-16T15:59:17.969Z,26.39
2019-05-16T16:01:49.136Z,26.32
2019-05-16T16:04:21.179Z,26.27
2019-05-16T16:06:52.740Z,26.24
2019-05-16T16:09:26.847Z,26.16
2019-05-16T16:11:57.682Z,26.14
2019-05-16T16:14:29.437Z,26.16
2019-05-16T16:17:01.095Z,26.09
2019-05-16T16:19:32.850Z,26.07
2019-05-16T16:22:07.288Z,26.00
2019-05-16T16:24:38.418Z,26.00
2019-05-16T16:27:10.172Z,25.89
2019-05-16T16:29:41.828Z,25.80
2019-05-16T16:32:13.801Z,25.71
2019-05-16T16:34:45.453Z,25.63
2019-05-16T16:37:17.004Z,25.58
2019-05-16T16:39:48.768Z,25.49
2019-05-16T16:42:20.518Z,25.44
2019-05-16T16:44:52.472Z,25.39
2019-05-16T16:47:23.807Z,25.36
2019-05-16T16:49:59.378Z,25.27
2019-05-16T16:52:30.558Z,25.23
2019-05-16T16:55:02.074Z,25.11
2019-05-16T16:57:33.921Z,25.05
2019-05-16T17:00:07.933Z,25.01
2019-05-16T17:02:39.896Z,24.93
2019-05-16T17:05:13.192Z,24.88
2019-05-16T17:07:45.041Z,24.81
2019-05-16T17:10:18.093Z,24.74
2019-05-16T17:12:49.596Z,24.64
2019-05-16T17:15:21.393Z,24.64
2019-05-16T17:17:52.895Z,24.55
2019-05-16T17:20:24.946Z,24.42
2019-05-16T17:22:57.215Z,24.34
2019-05-16T17:25:28.998Z,24.33
2019-05-16T17:28:00.756Z,24.26
2019-05-16T17:30:32.602Z,24.20
2019-05-16T17:33:04.019Z,24.17
2019-05-16T17:35:38.627Z,24.11
2019-05-16T17:38:08.667Z,24.02
2019-05-16T17:40:40.197Z,23.98
2019-05-16T17:43:12.016Z,23.87
2019-05-16T17:45:43.701Z,23.82
2019-05-16T17:48:17.510Z,23.79
2019-05-16T17:50:50.349Z,23.72
2019-05-16T17:53:22.320Z,23.70
2019-05-16T17:55:53.764Z,23.68
2019-05-16T17:58:27.044Z,23.60
2019-05-16T18:01:00.494Z,23.59
2019-05-16T18:03:32.613Z,23.53
2019-05-16T18:06:06.225Z,23.43
2019-05-16T18:08:37.807Z,23.40
2019-05-16T18:11:09.537Z,23.36
2019-05-16T18:13:41.284Z,23.20
2019-05-16T18:16:13.243Z,23.16
2019-05-16T18:18:46.888Z,23.14
2019-05-16T18:21:18.637Z,23.15
2019-05-16T18:23:50.259Z,23.05
2019-05-16T18:26:21.832Z,23.00
2019-05-16T18:28:53.486Z,22.94
2019-05-16T18:31:26.624Z,22.86
2019-05-16T18:33:58.322Z,22.77
2019-05-16T18:36:30.288Z,22.79
2019-05-16T18:39:02.241Z,22.72
2019-05-16T18:41:36.611Z,22.65
2019-05-16T18:44:08.208Z,22.63
2019-05-16T18:46:38.974Z,22.61
2019-05-16T18:49:10.093Z,22.61
2019-05-16T18:51:42.151Z,22.58
2019-05-16T18:54:17.262Z,22.52
2019-05-16T18:56:48.636Z,22.43
2019-05-16T18:59:20.493Z,22.36
2019-05-16T19:01:52.409Z,22.31
2019-05-16T19:04:27.047Z,22.24
2019-05-16T19:06:59.577Z,22.15
2019-05-16T19:09:31.423Z,22.13
2019-05-16T19:12:03.072Z,22.01
2019-05-16T19:14:36.723Z,21.97
2019-05-16T19:17:21.055Z,21.96
2019-05-16T19:19:40.901Z,21.91
2019-05-16T19:22:12.664Z,21.96
2019-05-16T19:24:46.456Z,21.93
2019-05-16T19:27:17.927Z,21.92
2019-05-16T19:29:49.772Z,21.90
2019-05-16T19:32:21.741Z,21.86
2019-05-16T19:34:53.389Z,21.84
2019-05-16T19:37:24.945Z,21.76
2019-05-16T19:39:57.054Z,21.68
2019-05-16T19:42:29.953Z,21.69
2019-05-16T19:45:01.562Z,21.59
2019-05-16T19:47:37.619Z,21.54
2019-05-16T19:50:07.798Z,21.53
2019-05-16T19:52:40.347Z,21.44
2019-05-16T19:55:12.458Z,21.39
2019-05-16T19:57:46.524Z,21.34
2019-05-16T20:00:18.441Z,21.28
2019-05-16T20:02:50.205Z,21.19
2019-05-16T20:05:21.854Z,21.17
2019-05-16T20:07:53.608Z,21.14
2019-05-16T20:10:27.093Z,21.11
2019-05-16T20:12:58.770Z,21.08
2019-05-16T20:15:30.214Z,21.07
2019-05-16T20:18:01.775Z,21.00
2019-05-16T20:20:33.627Z,20.97
2019-05-16T20:23:05.693Z,20.96
2019-05-16T20:25:37.142Z,20.93
2019-05-16T20:28:09.183Z,20.88
2019-05-16T20:37:53.586Z,20.81
2019-05-16T20:40:26.574Z,20.76
2019-05-16T20:42:59.670Z,20.75
2019-05-16T20:45:32.659Z,20.66
2019-05-16T20:48:12.117Z,20.64
2019-05-16T20:50:38.224Z,20.60
2019-05-16T20:53:09.877Z,20.56
2019-05-16T20:55:41.746Z,20.54
2019-05-16T20:58:13.494Z,20.51
2019-05-16T21:00:46.937Z,20.50
2019-05-16T21:03:18.841Z,20.47
2019-05-16T21:05:52.077Z,20.41
2019-05-16T21:08:26.440Z,20.41
2019-05-16T21:10:57.400Z,20.35
2019-05-16T21:13:29.567Z,20.31
2019-05-16T21:16:01.634Z,20.28
2019-05-16T21:18:33.593Z,20.24
2019-05-16T21:21:07.589Z,20.24
2019-05-16T21:23:39.055Z,20.18
2019-05-16T21:26:10.706Z,20.18
2019-05-16T21:28:42.565Z,20.15
2019-05-16T21:31:16.478Z,20.13
2019-05-16T21:33:47.621Z,20.05
2019-05-16T21:36:19.478Z,19.98
2019-05-16T21:38:52.153Z,19.96
2019-05-16T21:41:23.911Z,19.97
2019-05-16T21:43:56.218Z,19.92
2019-05-16T21:46:27.844Z,19.92
2019-05-16T21:48:59.599Z,19.84
2019-05-16T21:51:32.271Z,19.79
2019-05-16T21:54:07.016Z,19.82
2019-05-16T21:56:37.946Z,19.79
2019-05-16T21:59:09.592Z,19.76
2019-05-16T22:01:42.852Z,19.75
2019-05-16T22:04:14.648Z,19.75
2019-05-16T22:06:47.476Z,19.70
2019-05-16T22:09:19.488Z,19.68
2019-05-16T22:11:51.657Z,19.66
2019-05-16T22:14:28.124Z,19.56
2019-05-16T22:16:59.982Z,19.59
2019-05-16T22:19:33.073Z,19.52
2019-05-16T22:22:07.296Z,19.49
2019-05-16T22:24:38.328Z,19.45
2019-05-16T22:27:10.254Z,19.40
2019-05-16T22:29:42.152Z,19.49
2019-05-16T22:32:15.949Z,19.37
2019-05-16T22:34:47.650Z,19.32
2019-05-16T22:37:19.263Z,19.36
2019-05-16T22:39:50.716Z,19.32
2019-05-16T22:42:22.477Z,19.30
2019-05-16T22:44:54.231Z,19.26
2019-05-16T22:47:26.631Z,19.28
2019-05-16T22:49:59.235Z,19.27
2019-05-16T22:52:31.427Z,19.26
2019-05-16T22:55:03.102Z,19.26
2019-05-16T22:57:35.063Z,19.25
2019-05-16T23:00:10.510Z,19.24
2019-05-16T23:02:43.907Z,19.22
2019-05-16T23:05:16.831Z,19.18
2019-05-16T23:08:02.027Z,19.19
2019-05-16T23:10:25.001Z,19.20
2019-05-16T23:12:57.252Z,19.17
2019-05-16T23:15:28.833Z,19.16
2019-05-16T23:18:00.560Z,19.19
2019-05-16T23:20:32.350Z,19.12
2019-05-16T23:23:04.211Z,19.08
2019-05-16T23:25:37.071Z,19.10
2019-05-16T23:28:08.848Z,19.08
2019-05-16T23:30:40.424Z,18.98
2019-05-16T23:33:12.162Z,18.95
2019-05-16T23:35:46.717Z,18.88
2019-05-16T23:38:19.908Z,18.93
2019-05-16T23:40:51.016Z,18.87
2019-05-16T23:43:22.878Z,18.86
2019-05-16T23:45:56.405Z,18.84
2019-05-16T23:48:28.026Z,18.75
2019-05-16T23:50:59.584Z,18.81
2019-05-16T23:53:30.531Z,18.73
2019-05-16T23:56:01.777Z,18.75
2019-05-16T23:58:33.220Z,18.69
